createdAt,value
2017-12-15T00:00:11.106Z,1.46
2017-12-15T00:01:11.082Z,1.46
2017-12-15T00:02:11.070Z,1.57
2017-12-15T00:03:11.054Z,1.6
2017-12-15T00:04:10.760Z,1.5
2017-12-15T00:05:11.015Z,1.57
2017-12-15T00:06:10.997Z,1.53
2017-12-15T00:07:11.263Z,1.56
2017-12-15T00:08:10.690Z,1.54
2017-12-15T00:09:10.946Z,1.54
2017-12-15T00:10:10.938Z,1.57
2017-12-15T00:11:10.910Z,1.58
2017-12-15T00:12:10.629Z,1.57
2017-12-15T00:13:10.879Z,1.57
2017-12-15T00:14:10.858Z,1.54
2017-12-15T00:15:10.838Z,1.58
2017-12-15T00:16:10.550Z,1.58
2017-12-15T00:17:10.821Z,1.56
2017-12-15T00:18:10.531Z,1.57
2017-12-15T00:19:10.777Z,1.56
2017-12-15T00:20:10.484Z,1.56
2017-12-15T00:21:10.739Z,1.57
2017-12-15T00:22:10.724Z,1.54
2017-12-15T00:23:10.712Z,1.56
2017-12-15T00:24:10.967Z,1.51
2017-12-15T00:25:10.395Z,1.56
2017-12-15T00:26:10.921Z,1.56
2017-12-15T00:27:10.361Z,1.57
2017-12-15T00:28:10.622Z,1.44
2017-12-15T00:29:10.596Z,1.47
2017-12-15T00:30:10.594Z,1.54
2017-12-15T00:31:10.303Z,1.53
2017-12-15T00:32:10.548Z,1.51
2017-12-15T00:33:10.254Z,1.53
2017-12-15T00:34:10.799Z,1.6
2017-12-15T00:35:10.774Z,1.58
2017-12-15T00:36:10.223Z,1.5
2017-12-15T00:37:10.473Z,1.61
2017-12-15T00:38:10.169Z,1.6
2017-12-15T00:39:10.487Z,1.6
2017-12-15T00:40:10.425Z,1.61
2017-12-15T00:41:10.660Z,1.56
2017-12-15T00:42:10.121Z,1.65
2017-12-15T00:43:10.379Z,1.56
2017-12-15T00:44:10.067Z,1.68
2017-12-15T00:45:10.317Z,1.61
2017-12-15T00:46:10.031Z,1.66
2017-12-15T00:47:10.019Z,1.58
2017-12-15T00:48:10.268Z,1.66
2017-12-15T00:49:10.003Z,1.57
2017-12-15T00:50:10.245Z,1.68
2017-12-15T00:51:09.961Z,1.71
2017-12-15T00:52:10.200Z,1.68
2017-12-15T00:53:10.462Z,1.58
2017-12-15T00:54:09.893Z,1.69
2017-12-15T00:55:10.428Z,1.68
2017-12-15T00:56:09.871Z,1.75
2017-12-15T00:57:10.113Z,1.71
2017-12-15T00:58:09.847Z,1.74
2017-12-15T00:59:10.370Z,1.58
2017-12-15T01:00:09.793Z,1.68
2017-12-15T01:01:10.046Z,1.57
2017-12-15T01:02:10.300Z,1.57
2017-12-15T01:03:09.735Z,1.56
2017-12-15T01:04:09.995Z,1.58
2017-12-15T01:05:10.267Z,1.58
2017-12-15T01:06:09.690Z,1.54
2017-12-15T01:07:10.239Z,1.57
2017-12-15T01:08:09.653Z,1.53
2017-12-15T01:09:10.177Z,1.6
2017-12-15T01:10:09.887Z,1.6
2017-12-15T01:11:09.885Z,1.56
2017-12-15T01:12:10.125Z,1.54
2017-12-15T01:13:09.565Z,1.66
2017-12-15T01:14:09.548Z,1.53
2017-12-15T01:15:09.800Z,1.65
2017-12-15T01:16:09.854Z,1.56
2017-12-15T01:17:09.495Z,1.57
2017-12-15T01:18:09.493Z,1.57
2017-12-15T01:19:09.470Z,1.64
2017-12-15T01:20:09.717Z,1.64
2017-12-15T01:21:09.702Z,1.57
2017-12-15T01:22:09.411Z,1.64
2017-12-15T01:23:09.392Z,1.57
2017-12-15T01:24:09.650Z,1.6
2017-12-15T01:25:09.361Z,1.64
2017-12-15T01:26:09.906Z,1.6
2017-12-15T01:27:09.595Z,1.56
2017-12-15T01:28:09.577Z,1.6
2017-12-15T01:29:09.560Z,1.53
2017-12-15T01:30:09.547Z,1.58
2017-12-15T01:31:09.547Z,1.56
2017-12-15T01:32:09.582Z,1.58
2017-12-15T01:33:09.499Z,1.51
2017-12-15T01:34:09.211Z,1.48
2017-12-15T01:35:09.186Z,1.6
2017-12-15T01:36:09.171Z,1.53
2017-12-15T01:37:09.440Z,1.44
2017-12-15T01:38:09.404Z,1.39
2017-12-15T01:39:09.388Z,1.38
2017-12-15T01:40:09.101Z,1.3
2017-12-15T01:41:09.417Z,1.29
2017-12-15T01:42:09.086Z,1.21
2017-12-15T01:43:09.049Z,1.24
2017-12-15T01:44:09.033Z,1.18
2017-12-15T01:45:09.288Z,1.22
2017-12-15T01:46:08.996Z,1.15
2017-12-15T01:47:09.520Z,1.18
2017-12-15T01:48:09.235Z,1.15
2017-12-15T01:49:09.229Z,1.11
2017-12-15T01:50:09.211Z,1.12
2017-12-15T01:51:09.185Z,1.02
2017-12-15T01:52:09.165Z,1.07
2017-12-15T01:53:09.149Z,1.07
2017-12-15T01:54:08.859Z,1.08
2017-12-15T01:55:09.188Z,1.03
2017-12-15T01:56:09.095Z,1.04
2017-12-15T01:57:08.806Z,1.12
2017-12-15T01:58:09.092Z,1.15
2017-12-15T01:59:08.788Z,1.07
2017-12-15T02:00:09.037Z,1.07
2017-12-15T02:01:09.281Z,1.07
2017-12-15T02:02:08.990Z,1.11
2017-12-15T02:03:09.253Z,1.11
2017-12-15T02:04:08.963Z,1.02
2017-12-15T02:05:08.670Z,1.11
2017-12-15T02:06:08.924Z,1.11
2017-12-15T02:07:09.181Z,1.17
2017-12-15T02:08:08.881Z,1.24
2017-12-15T02:09:08.594Z,1.24
2017-12-15T02:10:09.141Z,1.28
2017-12-15T02:11:08.560Z,1.33
2017-12-15T02:12:09.093Z,1.36
2017-12-15T02:13:09.069Z,1.4
2017-12-15T02:14:08.507Z,1.4
2017-12-15T02:15:08.507Z,1.36
2017-12-15T02:16:09.026Z,1.4
2017-12-15T02:17:09.014Z,1.4
2017-12-15T02:18:08.439Z,1.48
2017-12-15T02:19:08.709Z,1.47
2017-12-15T02:20:08.401Z,1.4
2017-12-15T02:21:08.415Z,1.54
2017-12-15T02:22:08.911Z,1.54
2017-12-15T02:23:08.350Z,1.53
2017-12-15T02:24:08.630Z,1.4
2017-12-15T02:25:08.599Z,1.4
2017-12-15T02:26:08.850Z,1.48
2017-12-15T02:27:08.556Z,1.51
2017-12-15T02:28:08.282Z,1.47
2017-12-15T02:29:08.787Z,1.57
2017-12-15T02:30:08.776Z,1.51
2017-12-15T02:31:08.216Z,1.5
2017-12-15T02:32:08.489Z,1.5
2017-12-15T02:33:08.745Z,1.51
2017-12-15T02:34:08.164Z,1.51
2017-12-15T02:35:08.693Z,1.57
2017-12-15T02:36:08.400Z,1.56
2017-12-15T02:37:08.390Z,1.44
2017-12-15T02:38:08.093Z,1.5
2017-12-15T02:39:08.622Z,1.53
2017-12-15T02:40:08.054Z,1.48
2017-12-15T02:41:08.598Z,1.58
2017-12-15T02:42:08.297Z,1.56
2017-12-15T02:43:08.008Z,1.58
2017-12-15T02:44:07.992Z,1.53
2017-12-15T02:45:08.256Z,1.56
2017-12-15T02:46:08.243Z,1.53
2017-12-15T02:47:08.212Z,1.58
2017-12-15T02:48:08.189Z,1.61
2017-12-15T02:49:07.900Z,1.54
2017-12-15T02:50:07.882Z,1.61
2017-12-15T02:51:08.135Z,1.58
2017-12-15T02:52:07.847Z,1.65
2017-12-15T02:53:08.378Z,1.61
2017-12-15T02:54:07.821Z,1.6
2017-12-15T02:55:08.092Z,1.61
2017-12-15T02:56:08.351Z,1.66
2017-12-15T02:57:07.766Z,1.65
2017-12-15T02:58:08.288Z,1.78
2017-12-15T02:59:08.022Z,1.68
2017-12-15T03:00:07.913Z,1.76
2017-12-15T03:01:07.964Z,1.74
2017-12-15T03:02:07.677Z,1.74
2017-12-15T03:03:07.659Z,1.6
2017-12-15T03:04:08.194Z,1.74
2017-12-15T03:05:07.649Z,1.72
2017-12-15T03:06:07.608Z,1.74
2017-12-15T03:07:07.863Z,1.71
2017-12-15T03:08:07.573Z,1.72
2017-12-15T03:09:07.831Z,1.64
2017-12-15T03:10:07.813Z,1.66
2017-12-15T03:11:07.822Z,1.69
2017-12-15T03:12:07.782Z,1.65
2017-12-15T03:13:07.486Z,1.53
2017-12-15T03:14:07.748Z,1.6
2017-12-15T03:15:07.470Z,1.57
2017-12-15T03:16:07.732Z,1.56
2017-12-15T03:17:07.421Z,1.58
2017-12-15T03:18:07.412Z,1.57
2017-12-15T03:19:07.658Z,1.58
2017-12-15T03:20:07.367Z,1.57
2017-12-15T03:21:07.898Z,1.56
2017-12-15T03:22:07.335Z,1.61
2017-12-15T03:23:07.594Z,1.61
2017-12-15T03:24:07.915Z,1.68
2017-12-15T03:25:07.294Z,1.56
2017-12-15T03:26:07.865Z,1.71
2017-12-15T03:27:07.540Z,1.75
2017-12-15T03:28:07.506Z,1.79
2017-12-15T03:29:07.494Z,1.78
2017-12-15T03:30:07.199Z,1.78
2017-12-15T03:31:07.744Z,1.69
2017-12-15T03:32:07.724Z,1.68
2017-12-15T03:33:07.147Z,1.71
2017-12-15T03:34:07.131Z,1.71
2017-12-15T03:35:07.383Z,1.75
2017-12-15T03:36:07.643Z,1.69
2017-12-15T03:37:07.619Z,1.69
2017-12-15T03:38:07.066Z,1.72
2017-12-15T03:39:07.044Z,1.76
2017-12-15T03:40:07.300Z,1.79
2017-12-15T03:41:07.316Z,1.82
2017-12-15T03:42:06.988Z,1.72
2017-12-15T03:43:06.975Z,1.69
2017-12-15T03:44:07.228Z,1.69
2017-12-15T03:45:07.507Z,1.72
2017-12-15T03:46:07.216Z,1.75
2017-12-15T03:47:06.907Z,1.76
2017-12-15T03:48:06.892Z,1.74
2017-12-15T03:49:07.168Z,1.74
2017-12-15T03:50:06.856Z,1.76
2017-12-15T03:51:07.113Z,1.76
2017-12-15T03:52:06.846Z,1.71
2017-12-15T03:53:06.807Z,1.76
2017-12-15T03:54:07.352Z,1.78
2017-12-15T03:55:07.063Z,1.75
2017-12-15T03:56:06.755Z,1.75
2017-12-15T03:57:07.011Z,1.74
2017-12-15T03:58:06.753Z,1.71
2017-12-15T03:59:06.704Z,1.82
2017-12-15T04:00:06.687Z,1.75
2017-12-15T04:01:06.974Z,1.75
2017-12-15T04:02:06.927Z,1.75
2017-12-15T04:03:06.637Z,1.72
2017-12-15T04:04:06.619Z,1.74
2017-12-15T04:05:07.043Z,1.76
2017-12-15T04:06:06.853Z,1.74
2017-12-15T04:07:06.864Z,1.74
2017-12-15T04:08:06.821Z,1.75
2017-12-15T04:09:06.535Z,1.72
2017-12-15T04:10:06.519Z,1.71
2017-12-15T04:11:06.513Z,1.74
2017-12-15T04:12:06.757Z,1.66
2017-12-15T04:13:07.015Z,1.61
2017-12-15T04:14:06.448Z,1.6
2017-12-15T04:15:06.439Z,1.65
2017-12-15T04:16:06.684Z,1.69
2017-12-15T04:17:06.672Z,1.57
2017-12-15T04:18:06.376Z,1.74
2017-12-15T04:19:06.359Z,1.56
2017-12-15T04:20:06.617Z,1.75
2017-12-15T04:21:06.596Z,1.76
2017-12-15T04:22:06.587Z,1.66
2017-12-15T04:23:06.294Z,1.74
2017-12-15T04:24:06.293Z,1.74
2017-12-15T04:25:06.529Z,1.74
2017-12-15T04:26:06.399Z,1.75
2017-12-15T04:27:06.236Z,1.71
2017-12-15T04:28:06.267Z,1.69
2017-12-15T04:29:06.743Z,1.74
2017-12-15T04:30:06.218Z,1.71
2017-12-15T04:31:06.162Z,1.69
2017-12-15T04:32:06.413Z,1.82
2017-12-15T04:33:06.134Z,1.83
2017-12-15T04:34:06.650Z,1.69
2017-12-15T04:35:06.385Z,1.71
2017-12-15T04:36:06.622Z,1.72
2017-12-15T04:37:06.329Z,1.72
2017-12-15T04:38:06.581Z,1.75
2017-12-15T04:39:06.292Z,1.69
2017-12-15T04:40:06.000Z,1.75
2017-12-15T04:41:05.984Z,1.84
2017-12-15T04:42:06.015Z,1.86
2017-12-15T04:43:06.388Z,1.78
2017-12-15T04:44:06.486Z,1.82
2017-12-15T04:45:05.917Z,1.83
2017-12-15T04:46:05.898Z,1.82
2017-12-15T04:47:06.177Z,1.87
2017-12-15T04:48:06.143Z,1.94
2017-12-15T04:49:05.863Z,1.94
2017-12-15T04:50:05.834Z,1.83
2017-12-15T04:51:05.818Z,2.01
2017-12-15T04:52:05.803Z,1.79
2017-12-15T04:53:06.069Z,1.84
2017-12-15T04:54:05.765Z,1.89
2017-12-15T04:55:05.758Z,1.83
2017-12-15T04:56:06.003Z,1.84
2017-12-15T04:57:06.004Z,1.9
2017-12-15T04:58:05.697Z,1.78
2017-12-15T04:59:05.681Z,1.87
2017-12-15T05:00:05.685Z,1.86
2017-12-15T05:01:05.647Z,1.86
2017-12-15T05:02:06.172Z,1.86
2017-12-15T05:03:06.168Z,1.84
2017-12-15T05:04:05.868Z,1.82
2017-12-15T05:05:05.855Z,1.89
2017-12-15T05:06:05.576Z,1.89
2017-12-15T05:07:05.555Z,1.72
2017-12-15T05:08:05.525Z,1.86
2017-12-15T05:09:05.507Z,1.82
2017-12-15T05:10:05.492Z,1.74
2017-12-15T05:11:05.752Z,1.83
2017-12-15T05:12:05.459Z,1.89
2017-12-15T05:13:05.455Z,1.72
2017-12-15T05:14:05.426Z,1.84
2017-12-15T05:15:05.684Z,1.84
2017-12-15T05:16:05.669Z,1.86
2017-12-15T05:17:05.376Z,1.69
2017-12-15T05:18:05.629Z,1.76
2017-12-15T05:19:05.900Z,1.75
2017-12-15T05:20:05.330Z,1.69
2017-12-15T05:21:05.582Z,1.74
2017-12-15T05:22:05.567Z,1.72
2017-12-15T05:23:05.548Z,1.83
2017-12-15T05:24:05.256Z,1.72
2017-12-15T05:25:05.253Z,1.69
2017-12-15T05:26:05.496Z,1.72
2017-12-15T05:27:05.221Z,1.72
2017-12-15T05:28:05.191Z,1.74
2017-12-15T05:29:05.448Z,1.86
2017-12-15T05:30:05.222Z,1.72
2017-12-15T05:31:05.138Z,1.75
2017-12-15T05:32:05.394Z,1.76
2017-12-15T05:33:05.384Z,1.79
2017-12-15T05:34:05.090Z,1.82
2017-12-15T05:35:05.346Z,1.76
2017-12-15T05:36:05.073Z,1.82
2017-12-15T05:37:05.047Z,1.75
2017-12-15T05:38:05.301Z,1.72
2017-12-15T05:39:05.553Z,1.71
2017-12-15T05:40:04.988Z,1.68
2017-12-15T05:41:04.969Z,1.68
2017-12-15T05:42:05.224Z,1.65
2017-12-15T05:43:05.206Z,1.66
2017-12-15T05:44:05.190Z,1.64
2017-12-15T05:45:05.176Z,1.6
2017-12-15T05:46:04.884Z,1.53
2017-12-15T05:47:04.867Z,1.56
2017-12-15T05:48:05.391Z,1.54
2017-12-15T05:49:05.106Z,1.46
2017-12-15T05:50:04.814Z,1.57
2017-12-15T05:51:04.795Z,1.5
2017-12-15T05:52:04.780Z,1.48
2017-12-15T05:53:04.774Z,1.46
2017-12-15T05:54:04.789Z,1.32
2017-12-15T05:55:05.002Z,1.38
2017-12-15T05:56:04.987Z,1.35
2017-12-15T05:57:04.700Z,1.29
2017-12-15T05:58:04.725Z,1.3
2017-12-15T05:59:04.672Z,1.29
2017-12-15T06:00:05.216Z,1.21
2017-12-15T06:01:04.898Z,1.32
2017-12-15T06:02:04.610Z,1.2
2017-12-15T06:03:04.863Z,1.22
2017-12-15T06:04:04.773Z,1.2
2017-12-15T06:05:05.251Z,1.18
2017-12-15T06:06:04.760Z,1.18
2017-12-15T06:07:05.051Z,1.15
2017-12-15T06:08:05.147Z,1.21
2017-12-15T06:09:04.756Z,1.15
2017-12-15T06:10:05.016Z,1.11
2017-12-15T06:11:05.094Z,1.1
2017-12-15T06:12:04.997Z,1.15
2017-12-15T06:13:04.415Z,1.15
2017-12-15T06:14:04.401Z,1.14
2017-12-15T06:15:04.928Z,1.03
2017-12-15T06:16:04.640Z,1.11
2017-12-15T06:17:04.635Z,1.11
2017-12-15T06:18:04.330Z,1.04
2017-12-15T06:19:04.856Z,1.1
2017-12-15T06:20:04.294Z,1.07
2017-12-15T06:21:04.546Z,1.04
2017-12-15T06:22:04.292Z,1.04
2017-12-15T06:23:04.788Z,1.1
2017-12-15T06:24:04.246Z,0.99
2017-12-15T06:25:04.481Z,1.03
2017-12-15T06:26:04.519Z,1
2017-12-15T06:27:04.173Z,0.96
2017-12-15T06:28:04.169Z,0.9
2017-12-15T06:29:04.417Z,0.92
2017-12-15T06:30:04.392Z,0.97
2017-12-15T06:31:04.661Z,0.86
2017-12-15T06:32:04.354Z,0.82
2017-12-15T06:33:04.634Z,0.96
2017-12-15T06:34:04.322Z,0.96
2017-12-15T06:35:04.574Z,0.9
2017-12-15T06:36:04.284Z,0.76
2017-12-15T06:37:03.998Z,0.93
2017-12-15T06:38:04.246Z,0.89
2017-12-15T06:39:03.959Z,0.86
2017-12-15T06:40:03.943Z,0.78
2017-12-15T06:41:04.464Z,0.84
2017-12-15T06:42:04.183Z,0.84
2017-12-15T06:43:04.163Z,0.81
2017-12-15T06:44:03.866Z,0.78
2017-12-15T06:45:03.848Z,0.84
2017-12-15T06:46:03.832Z,0.79
2017-12-15T06:47:03.813Z,0.85
2017-12-15T06:48:04.088Z,0.85
2017-12-15T06:49:03.781Z,0.81
2017-12-15T06:50:03.771Z,0.84
2017-12-15T06:51:03.743Z,0.82
2017-12-15T06:52:03.999Z,0.78
2017-12-15T06:53:04.012Z,0.82
2017-12-15T06:54:04.254Z,0.85
2017-12-15T06:55:03.670Z,0.82
2017-12-15T06:56:03.652Z,0.72
2017-12-15T06:57:03.916Z,0.79
2017-12-15T06:58:03.629Z,0.72
2017-12-15T06:59:03.600Z,0.76
2017-12-15T07:00:03.860Z,0.74
2017-12-15T07:01:04.078Z,0.72
2017-12-15T07:02:03.826Z,0.79
2017-12-15T07:03:03.800Z,0.76
2017-12-15T07:04:04.056Z,0.74
2017-12-15T07:05:03.764Z,0.81
2017-12-15T07:06:03.747Z,0.79
2017-12-15T07:07:03.454Z,0.76
2017-12-15T07:08:03.708Z,0.72
2017-12-15T07:09:03.966Z,0.71
2017-12-15T07:10:03.948Z,0.79
2017-12-15T07:11:03.661Z,0.76
2017-12-15T07:12:03.936Z,0.78
2017-12-15T07:13:03.361Z,0.75
2017-12-15T07:14:03.377Z,0.84
2017-12-15T07:15:03.582Z,0.82
2017-12-15T07:16:03.294Z,0.75
2017-12-15T07:17:03.547Z,0.78
2017-12-15T07:18:03.534Z,0.82
2017-12-15T07:19:03.239Z,0.85
2017-12-15T07:20:03.765Z,0.84
2017-12-15T07:21:03.200Z,0.86
2017-12-15T07:22:03.466Z,0.85
2017-12-15T07:23:03.445Z,0.79
2017-12-15T07:24:03.164Z,0.82
2017-12-15T07:25:03.129Z,0.82
2017-12-15T07:26:03.396Z,0.94
2017-12-15T07:27:03.096Z,0.92
2017-12-15T07:28:03.078Z,0.93
2017-12-15T07:29:03.057Z,0.81
2017-12-15T07:30:03.311Z,0.93
2017-12-15T07:31:03.596Z,0.89
2017-12-15T07:32:03.549Z,0.84
2017-12-15T07:33:03.536Z,0.89
2017-12-15T07:34:03.241Z,0.86
2017-12-15T07:35:03.222Z,0.89
2017-12-15T07:36:02.936Z,0.86
2017-12-15T07:37:02.922Z,1.02
2017-12-15T07:38:02.896Z,0.9
2017-12-15T07:39:02.881Z,0.92
2017-12-15T07:40:03.408Z,0.93
2017-12-15T07:41:02.858Z,0.97
2017-12-15T07:42:03.097Z,0.99
2017-12-15T07:43:03.358Z,0.97
2017-12-15T07:44:02.793Z,0.92
2017-12-15T07:45:02.789Z,1.07
2017-12-15T07:46:03.299Z,1.11
2017-12-15T07:47:03.097Z,1.07
2017-12-15T07:48:02.718Z,1.1
2017-12-15T07:49:02.971Z,1.08
2017-12-15T07:50:03.230Z,1
2017-12-15T07:51:02.971Z,1.04
2017-12-15T07:52:02.665Z,1.1
2017-12-15T07:53:02.636Z,1.04
2017-12-15T07:54:02.902Z,1.14
2017-12-15T07:55:02.884Z,1.03
2017-12-15T07:56:02.575Z,1.12
2017-12-15T07:57:03.102Z,1.12
2017-12-15T07:58:02.890Z,1.17
2017-12-15T07:59:02.804Z,1.15
2017-12-15T08:00:02.783Z,1.2
2017-12-15T08:01:02.490Z,1.14
2017-12-15T08:02:02.473Z,1.2
2017-12-15T08:03:02.730Z,1.2
2017-12-15T08:04:02.709Z,1.15
2017-12-15T08:05:02.689Z,1.17
2017-12-15T08:06:02.421Z,1.2
2017-12-15T08:07:02.656Z,1.21
2017-12-15T08:08:02.374Z,1.29
2017-12-15T08:09:02.356Z,1.2
2017-12-15T08:10:02.601Z,1.2
2017-12-15T08:11:02.322Z,1.21
2017-12-15T08:12:02.296Z,1.18
2017-12-15T08:13:02.550Z,1.3
2017-12-15T08:14:02.557Z,1.22
2017-12-15T08:15:02.247Z,1.18
2017-12-15T08:16:02.224Z,1.2
2017-12-15T08:17:02.481Z,1.3
2017-12-15T08:18:02.192Z,1.33
2017-12-15T08:19:02.443Z,1.17
2017-12-15T08:20:02.425Z,1.26
2017-12-15T08:21:02.404Z,1.18
2017-12-15T08:22:02.390Z,1.15
2017-12-15T08:23:02.101Z,1.2
2017-12-15T08:24:02.659Z,1.15
2017-12-15T08:25:02.066Z,1.14
2017-12-15T08:26:02.322Z,1.18
2017-12-15T08:27:02.307Z,1.18
2017-12-15T08:28:02.020Z,1.17
2017-12-15T08:29:02.268Z,1.12
2017-12-15T08:30:02.251Z,1.1
2017-12-15T08:31:02.237Z,1.1
2017-12-15T08:32:01.945Z,1.21
2017-12-15T08:33:02.491Z,1.28
2017-12-15T08:34:02.192Z,1.26
2017-12-15T08:35:01.904Z,1.28
2017-12-15T08:36:01.872Z,1.29
2017-12-15T08:37:02.132Z,1.24
2017-12-15T08:38:01.839Z,1.33
2017-12-15T08:39:02.112Z,1.29
2017-12-15T08:40:02.349Z,1.33
2017-12-15T08:41:02.330Z,1.3
2017-12-15T08:42:02.041Z,1.33
2017-12-15T08:43:01.767Z,1.29
2017-12-15T08:44:01.734Z,1.18
2017-12-15T08:45:01.991Z,1.29
2017-12-15T08:46:01.703Z,1.26
2017-12-15T08:47:02.224Z,1.22
2017-12-15T08:48:01.958Z,1.3
2017-12-15T08:49:01.921Z,1.24
2017-12-15T08:50:01.936Z,1.32
2017-12-15T08:51:01.610Z,1.21
2017-12-15T08:52:02.141Z,1.35
2017-12-15T08:53:01.575Z,1.36
2017-12-15T08:54:01.842Z,1.4
2017-12-15T08:55:01.813Z,1.38
2017-12-15T08:56:01.532Z,1.39
2017-12-15T08:57:01.782Z,1.36
2017-12-15T08:58:01.491Z,1.29
2017-12-15T08:59:01.477Z,1.39
2017-12-15T09:00:01.458Z,1.4
2017-12-15T09:01:01.437Z,1.42
2017-12-15T09:02:01.698Z,1.38
2017-12-15T09:03:01.405Z,1.42
2017-12-15T09:04:01.935Z,1.46
2017-12-15T09:05:01.370Z,1.44
2017-12-15T09:06:01.646Z,1.48
2017-12-15T09:07:01.341Z,1.44
2017-12-15T09:08:01.589Z,1.47
2017-12-15T09:09:01.585Z,1.58
2017-12-15T09:10:01.555Z,1.46
2017-12-15T09:11:01.266Z,1.47
2017-12-15T09:12:01.536Z,1.48
2017-12-15T09:13:01.555Z,1.47
2017-12-15T09:14:01.212Z,1.57
2017-12-15T09:15:01.531Z,1.6
2017-12-15T09:16:01.194Z,1.48
2017-12-15T09:17:01.434Z,1.56
2017-12-15T09:18:01.145Z,1.44
2017-12-15T09:19:01.413Z,1.54
2017-12-15T09:20:01.380Z,1.57
2017-12-15T09:21:01.667Z,1.42
2017-12-15T09:22:01.625Z,1.5
2017-12-15T09:23:01.333Z,1.48
2017-12-15T09:24:01.043Z,1.51
2017-12-15T09:25:01.301Z,1.57
2017-12-15T09:26:01.276Z,1.53
2017-12-15T09:27:01.756Z,1.61
2017-12-15T09:28:01.537Z,1.5
2017-12-15T09:29:01.224Z,1.51
2017-12-15T09:30:01.206Z,1.57
2017-12-15T09:31:01.523Z,1.6
2017-12-15T09:32:01.182Z,1.54
2017-12-15T09:33:01.160Z,1.51
2017-12-15T09:34:00.866Z,1.57
2017-12-15T09:35:01.130Z,1.56
2017-12-15T09:36:01.110Z,1.57
2017-12-15T09:37:01.106Z,1.58
2017-12-15T09:38:00.799Z,1.56
2017-12-15T09:39:00.782Z,1.57
2017-12-15T09:40:01.040Z,1.57
2017-12-15T09:41:00.746Z,1.58
2017-12-15T09:42:00.734Z,1.61
2017-12-15T09:43:00.728Z,1.64
2017-12-15T09:44:00.695Z,1.65
2017-12-15T09:45:00.973Z,1.69
2017-12-15T09:46:00.660Z,1.71
2017-12-15T09:47:01.190Z,1.71
2017-12-15T09:48:00.905Z,1.71
2017-12-15T09:49:00.884Z,1.71
2017-12-15T09:50:00.868Z,1.82
2017-12-15T09:51:01.124Z,1.83
2017-12-15T09:52:01.116Z,1.83
2017-12-15T09:53:00.541Z,1.69
2017-12-15T09:54:00.808Z,1.82
2017-12-15T09:55:00.848Z,1.72
2017-12-15T09:56:01.037Z,1.72
2017-12-15T09:57:00.752Z,1.76
2017-12-15T09:58:00.733Z,1.75
2017-12-15T09:59:00.460Z,1.68
2017-12-15T10:00:00.702Z,1.74
2017-12-15T10:01:00.417Z,1.71
2017-12-15T10:02:00.937Z,1.74
2017-12-15T10:03:00.372Z,1.76
2017-12-15T10:04:00.355Z,1.79
2017-12-15T10:05:00.339Z,1.74
2017-12-15T10:06:00.321Z,1.87
2017-12-15T10:07:00.326Z,1.79
2017-12-15T10:08:00.851Z,1.84
2017-12-15T10:09:00.282Z,1.83
2017-12-15T10:10:00.253Z,1.86
2017-12-15T10:11:00.235Z,1.86
2017-12-15T10:12:00.220Z,1.84
2017-12-15T10:13:00.498Z,1.83
2017-12-15T10:14:00.459Z,1.75
2017-12-15T10:15:00.719Z,1.72
2017-12-15T10:16:00.151Z,1.72
2017-12-15T10:17:00.132Z,1.74
2017-12-15T10:18:00.131Z,1.72
2017-12-15T10:19:00.425Z,1.75
2017-12-15T10:20:00.084Z,1.74
2017-12-15T10:21:00.067Z,1.72
2017-12-15T10:22:00.382Z,1.83
2017-12-15T10:23:00.322Z,1.83
2017-12-15T10:24:00.020Z,1.83
2017-12-15T10:25:00.275Z,1.78
2017-12-15T10:26:00.525Z,1.82
2017-12-15T10:26:59.972Z,1.82
2017-12-15T10:28:00.490Z,1.93
2017-12-15T10:29:00.478Z,1.94
2017-12-15T10:30:00.227Z,2.11
2017-12-15T10:31:00.171Z,2.09
2017-12-15T10:32:00.151Z,2.11
2017-12-15T10:33:00.410Z,2.05
2017-12-15T10:34:00.122Z,2.08
2017-12-15T10:34:59.827Z,2.08
2017-12-15T10:36:00.094Z,2.12
2017-12-15T10:37:00.342Z,2.06
2017-12-15T10:38:00.052Z,2.06
2017-12-15T10:39:00.041Z,2.08
2017-12-15T10:40:00.022Z,2.12
2017-12-15T10:41:00.000Z,2.08
2017-12-15T10:41:59.987Z,2.04
2017-12-15T10:42:59.969Z,2.09
2017-12-15T10:44:00.228Z,2.04
2017-12-15T10:44:59.682Z,2.11
2017-12-15T10:45:59.641Z,2.01
2017-12-15T10:46:59.625Z,2.11
2017-12-15T10:47:59.612Z,2.09
2017-12-15T10:49:00.146Z,2.11
2017-12-15T10:50:00.130Z,2.01
2017-12-15T10:50:59.562Z,2.05
2017-12-15T10:51:59.550Z,2.04
2017-12-15T10:52:59.803Z,2.13
2017-12-15T10:53:59.787Z,2.09
2017-12-15T10:55:00.037Z,2.15
2017-12-15T10:55:59.479Z,2.13
2017-12-15T10:56:59.461Z,2.12
2017-12-15T10:57:59.441Z,2.09
2017-12-15T10:58:59.463Z,2.04
2017-12-15T11:00:02.514Z,2.04
2017-12-15T11:00:59.984Z,2.05
2017-12-15T11:01:59.384Z,2.08
2017-12-15T11:02:59.634Z,2.09
2017-12-15T11:03:59.892Z,2.02
2017-12-15T11:04:59.609Z,1.94
2017-12-15T11:05:59.579Z,2.05
2017-12-15T11:06:59.568Z,1.98
2017-12-15T11:07:59.856Z,1.92
2017-12-15T11:08:59.530Z,2.05
2017-12-15T11:09:59.255Z,2.02
2017-12-15T11:10:59.496Z,2.11
2017-12-15T11:11:59.492Z,2.11
2017-12-15T11:12:59.192Z,2.12
2017-12-15T11:13:59.176Z,2.05
2017-12-15T11:14:59.178Z,2.18
2017-12-15T11:15:59.140Z,2.18
2017-12-15T11:16:59.434Z,2.15
2017-12-15T11:17:59.383Z,2.24
2017-12-15T11:18:59.092Z,2.33
2017-12-15T11:19:59.077Z,2.34
2017-12-15T11:20:59.066Z,2.33
2017-12-15T11:21:59.335Z,2.31
2017-12-15T11:22:59.304Z,2.31
2017-12-15T11:23:59.299Z,2.4
2017-12-15T11:24:59.265Z,2.33
2017-12-15T11:25:58.976Z,2.36
2017-12-15T11:26:59.254Z,2.36
2017-12-15T11:27:59.494Z,2.33
2017-12-15T11:28:58.928Z,2.34
2017-12-15T11:29:58.910Z,2.31
2017-12-15T11:30:59.433Z,2.44
2017-12-15T11:31:58.875Z,2.44
2017-12-15T11:32:58.875Z,2.45
2017-12-15T11:33:59.384Z,2.58
2017-12-15T11:34:59.117Z,2.55
2017-12-15T11:35:59.086Z,2.58
2017-12-15T11:36:59.064Z,2.72
2017-12-15T11:37:58.780Z,2.85
2017-12-15T11:38:59.040Z,2.9
2017-12-15T11:39:59.018Z,2.93
2017-12-15T11:40:59.006Z,3.03
2017-12-15T11:41:59.261Z,3.09
2017-12-15T11:42:58.965Z,2.96
2017-12-15T11:43:58.958Z,3.03
2017-12-15T11:44:59.208Z,2.84
2017-12-15T11:45:58.648Z,2.73
2017-12-15T11:46:58.933Z,2.62
2017-12-15T11:47:58.614Z,2.55
2017-12-15T11:48:58.598Z,2.51
2017-12-15T11:49:58.582Z,2.42
2017-12-15T11:50:58.843Z,2.31
2017-12-15T11:51:59.132Z,2.16
2017-12-15T11:52:58.535Z,2.11
2017-12-15T11:53:58.521Z,2.05
2017-12-15T11:54:58.775Z,1.97
2017-12-15T11:55:58.774Z,1.94
2017-12-15T11:56:58.750Z,1.97
2017-12-15T11:57:58.728Z,1.87
2017-12-15T11:58:58.989Z,1.86
2017-12-15T11:59:58.416Z,1.82
2017-12-15T12:00:58.694Z,1.83
2017-12-15T12:01:58.404Z,1.83
2017-12-15T12:02:58.368Z,1.84
2017-12-15T12:03:58.376Z,1.79
2017-12-15T12:04:58.336Z,1.86
2017-12-15T12:05:58.592Z,1.82
2017-12-15T12:06:58.300Z,2.05
2017-12-15T12:07:58.289Z,2.06
2017-12-15T12:08:58.826Z,2.11
2017-12-15T12:09:58.799Z,2.18
2017-12-15T12:10:58.259Z,2.18
2017-12-15T12:11:58.763Z,2.31
2017-12-15T12:12:58.475Z,2.16
2017-12-15T12:13:58.460Z,2.29
2017-12-15T12:14:58.446Z,2.36
2017-12-15T12:15:58.446Z,2.34
2017-12-15T12:16:58.135Z,2.36
2017-12-15T12:17:58.399Z,2.34
2017-12-15T12:18:58.107Z,2.2
2017-12-15T12:19:58.093Z,2.06
2017-12-15T12:20:58.347Z,2.08
2017-12-15T12:21:58.621Z,1.98
2017-12-15T12:22:58.593Z,1.89
2017-12-15T12:23:58.293Z,1.84
2017-12-15T12:24:58.020Z,1.84
2017-12-15T12:25:58.278Z,1.83
2017-12-15T12:26:57.973Z,1.79
2017-12-15T12:27:58.240Z,1.97
2017-12-15T12:28:57.942Z,1.97
2017-12-15T12:29:58.477Z,2.11
2017-12-15T12:30:58.181Z,2.05
2017-12-15T12:31:58.437Z,2.06
2017-12-15T12:32:58.144Z,2.08
2017-12-15T12:33:57.854Z,2.09
2017-12-15T12:34:57.842Z,2.12
2017-12-15T12:35:58.096Z,2.13
2017-12-15T12:36:58.116Z,2.15
2017-12-15T12:37:58.099Z,2.13
2017-12-15T12:38:58.051Z,2.15
2017-12-15T12:39:57.756Z,2.23
2017-12-15T12:40:58.024Z,2.22
2017-12-15T12:41:57.994Z,2.13
2017-12-15T12:42:57.987Z,2.13
2017-12-15T12:43:57.688Z,2.27
2017-12-15T12:44:57.945Z,2.16
2017-12-15T12:45:57.989Z,2.2
2017-12-15T12:46:57.910Z,2.18
2017-12-15T12:47:57.620Z,2.16
2017-12-15T12:48:57.876Z,2.18
2017-12-15T12:49:57.887Z,2.18
2017-12-15T12:50:57.577Z,2.2
2017-12-15T12:51:57.851Z,2.23
2017-12-15T12:52:57.820Z,2.15
2017-12-15T12:53:57.819Z,2.15
2017-12-15T12:54:57.800Z,2.2
2017-12-15T12:55:57.504Z,2.12
2017-12-15T12:56:57.478Z,2.11
2017-12-15T12:57:57.841Z,2.08
2017-12-15T12:58:57.991Z,2.05
2017-12-15T12:59:57.694Z,2.06
2017-12-15T13:00:57.408Z,2.15
2017-12-15T13:01:57.661Z,2.08
2017-12-15T13:02:57.644Z,2.06
2017-12-15T13:03:57.359Z,2.05
2017-12-15T13:04:57.383Z,2.08
2017-12-15T13:05:57.391Z,2.13
2017-12-15T13:06:57.676Z,2.12
2017-12-15T13:07:57.562Z,2.13
2017-12-15T13:08:57.548Z,2.13
2017-12-15T13:09:57.531Z,2.13
2017-12-15T13:10:57.785Z,2.12
2017-12-15T13:11:57.770Z,2.02
2017-12-15T13:12:57.209Z,2.16
2017-12-15T13:13:57.462Z,2.05
2017-12-15T13:14:57.447Z,2.08
2017-12-15T13:15:57.155Z,2.12
2017-12-15T13:16:57.148Z,2.05
2017-12-15T13:17:57.127Z,2.11
2017-12-15T13:18:57.116Z,2.2
2017-12-15T13:19:57.094Z,2.15